createdAt,value
2023-01-13T00:01:29.740Z,3.61
2023-01-13T00:04:01.037Z,3.61
2023-01-13T00:06:29.741Z,3.61
2023-01-13T00:08:58.034Z,3.60
2023-01-13T00:11:26.643Z,3.60
2023-01-13T00:13:54.978Z,3.60
2023-01-13T00:16:23.095Z,3.60
2023-01-13T00:18:51.420Z,3.61
2023-01-13T00:21:21.940Z,3.61
2023-01-13T00:23:52.206Z,3.62
2023-01-13T00:26:26.188Z,3.62
2023-01-13T00:28:58.967Z,3.60
2023-01-13T00:31:29.096Z,3.60
2023-01-13T00:33:58.207Z,3.60
2023-01-13T00:36:26.619Z,3.59
2023-01-13T00:38:55.402Z,3.61
2023-01-13T00:41:25.612Z,3.60
2023-01-13T00:43:54.115Z,3.58
2023-01-13T00:46:23.105Z,3.56
2023-01-13T00:48:51.812Z,3.55
2023-01-13T00:51:21.765Z,3.54
2023-01-13T00:53:51.839Z,3.53
2023-01-13T00:56:39.166Z,3.52
2023-01-13T00:59:11.207Z,3.51
2023-01-13T01:01:40.798Z,3.48
2023-01-13T01:04:09.107Z,3.45
2023-01-13T01:06:38.022Z,3.43
2023-01-13T01:09:06.521Z,3.40
2023-01-13T01:11:35.016Z,3.37
2023-01-13T01:14:04.223Z,3.35
2023-01-13T01:16:34.110Z,3.33
2023-01-13T01:19:03.727Z,3.31
2023-01-13T01:21:32.762Z,3.29
2023-01-13T01:24:02.519Z,3.29
2023-01-13T01:26:31.825Z,3.29
2023-01-13T01:29:02.431Z,3.30
2023-01-13T01:31:33.382Z,3.30
2023-01-13T01:34:02.074Z,3.31
2023-01-13T01:36:30.573Z,3.30
2023-01-13T01:38:59.520Z,3.30
2023-01-13T01:41:31.706Z,3.31
2023-01-13T01:44:28.665Z,3.32
2023-01-13T01:46:57.874Z,3.32
2023-01-13T01:49:31.854Z,3.33
2023-01-13T01:52:06.712Z,3.33
2023-01-13T01:54:44.205Z,3.34
2023-01-13T01:57:18.723Z,3.33
2023-01-13T01:59:47.426Z,3.32
2023-01-13T02:02:16.312Z,3.30
2023-01-13T02:04:53.437Z,3.31
2023-01-13T02:07:33.648Z,3.31
2023-01-13T02:10:06.351Z,3.30
2023-01-13T02:12:34.866Z,3.29
2023-01-13T02:15:06.500Z,3.29
2023-01-13T02:18:13.650Z,3.27
2023-01-13T02:20:45.096Z,3.24
2023-01-13T02:23:55.060Z,3.23
2023-01-13T02:26:55.434Z,3.22
2023-01-13T02:30:02.300Z,3.20
2023-01-13T02:32:40.286Z,3.21
2023-01-13T02:35:27.215Z,3.21
2023-01-13T02:37:58.789Z,3.23
2023-01-13T02:40:38.164Z,3.25
2023-01-13T02:43:37.641Z,3.27
2023-01-13T02:46:23.628Z,3.30
2023-01-13T02:48:54.823Z,3.32
2023-01-13T02:51:27.289Z,3.33
2023-01-13T02:54:00.242Z,3.35
2023-01-13T02:56:31.792Z,3.32
2023-01-13T02:59:01.775Z,3.30
2023-01-13T03:01:30.324Z,3.29
2023-01-13T03:03:58.500Z,3.29
2023-01-13T03:06:54.601Z,3.29
2023-01-13T03:09:29.971Z,3.29
2023-01-13T03:12:40.110Z,3.30
2023-01-13T03:15:23.115Z,3.30
2023-01-13T03:18:40.056Z,3.31
2023-01-13T03:21:39.439Z,3.33
2023-01-13T03:24:26.023Z,3.34
2023-01-13T03:27:06.041Z,3.34
2023-01-13T03:29:36.865Z,3.37
2023-01-13T03:32:26.867Z,3.38
2023-01-13T03:35:10.117Z,3.41
2023-01-13T03:37:44.151Z,3.43
2023-01-13T03:40:22.816Z,3.45
2023-01-13T03:43:19.607Z,3.48
2023-01-13T03:45:53.822Z,3.51
2023-01-13T03:48:23.996Z,3.53
2023-01-13T03:50:55.375Z,3.54
2023-01-13T03:53:28.699Z,3.54
2023-01-13T03:56:07.109Z,3.53
2023-01-13T03:58:40.267Z,3.52
2023-01-13T04:01:19.264Z,3.53
2023-01-13T04:04:08.484Z,3.55
2023-01-13T04:06:52.400Z,3.56
2023-01-13T04:09:41.959Z,3.58
2023-01-13T04:12:51.536Z,3.60
2023-01-13T04:15:23.555Z,3.61
2023-01-13T04:17:52.245Z,3.63
2023-01-13T04:20:20.942Z,3.65
2023-01-13T04:22:49.157Z,3.66
2023-01-13T04:25:17.243Z,3.66
2023-01-13T04:27:45.355Z,3.66
2023-01-13T04:30:14.008Z,3.64
2023-01-13T04:32:42.308Z,3.63
2023-01-13T04:35:10.699Z,3.64
2023-01-13T04:37:38.862Z,3.64
2023-01-13T04:40:08.172Z,3.63
2023-01-13T04:42:36.414Z,3.64
2023-01-13T04:45:05.295Z,3.64
2023-01-13T04:47:33.609Z,3.65
2023-01-13T04:50:01.826Z,3.64
2023-01-13T04:52:29.899Z,3.64
2023-01-13T04:54:58.117Z,3.65
2023-01-13T04:57:26.265Z,3.66
2023-01-13T04:59:55.796Z,3.66
2023-01-13T05:02:24.016Z,3.66
2023-01-13T05:04:52.240Z,3.68
2023-01-13T05:07:20.351Z,3.68
2023-01-13T05:09:48.548Z,3.69
2023-01-13T05:12:35.651Z,3.69
2023-01-13T05:15:22.872Z,3.70
2023-01-13T05:17:51.576Z,3.70
2023-01-13T05:20:19.926Z,3.70
2023-01-13T05:23:06.719Z,3.69
2023-01-13T05:25:44.503Z,3.67
2023-01-13T05:28:12.997Z,3.66
2023-01-13T05:30:44.046Z,3.66
2023-01-13T05:33:14.936Z,3.66
2023-01-13T05:35:45.370Z,3.66
2023-01-13T05:38:14.531Z,3.67
2023-01-13T05:41:01.483Z,3.67
2023-01-13T05:43:29.601Z,3.67
2023-01-13T05:46:05.747Z,3.67
2023-01-13T05:48:37.571Z,3.66
2023-01-13T05:51:07.989Z,3.66
2023-01-13T05:53:36.959Z,3.66
2023-01-13T05:56:07.251Z,3.65
2023-01-13T05:58:35.978Z,3.65
2023-01-13T06:01:07.475Z,3.65
2023-01-13T06:03:37.956Z,3.66
2023-01-13T06:06:09.079Z,3.65
2023-01-13T06:08:39.561Z,3.65
2023-01-13T06:11:08.101Z,3.66
2023-01-13T06:13:36.264Z,3.67
2023-01-13T06:16:04.782Z,3.67
2023-01-13T06:18:33.085Z,3.69
2023-01-13T06:21:01.369Z,3.69
2023-01-13T06:23:29.724Z,3.71
2023-01-13T06:26:07.164Z,3.72
2023-01-13T06:28:35.729Z,3.73
2023-01-13T06:31:07.544Z,3.74
2023-01-13T06:33:45.969Z,3.76
2023-01-13T06:36:18.722Z,3.77
2023-01-13T06:38:52.227Z,3.79
2023-01-13T06:41:44.107Z,3.79
2023-01-13T06:44:12.671Z,3.78
2023-01-13T06:46:41.103Z,3.78
2023-01-13T06:49:09.709Z,3.79
2023-01-13T06:51:37.822Z,3.79
2023-01-13T06:54:06.029Z,3.79
2023-01-13T06:56:34.283Z,3.79
2023-01-13T06:59:02.573Z,3.80
2023-01-13T07:01:30.855Z,3.81
2023-01-13T07:04:00.036Z,3.84
2023-01-13T07:06:28.913Z,3.87
2023-01-13T07:08:57.188Z,3.89
2023-01-13T07:11:25.358Z,3.90
2023-01-13T07:14:12.363Z,3.92
2023-01-13T07:16:40.510Z,3.95
2023-01-13T07:19:08.673Z,3.97
2023-01-13T07:21:36.844Z,3.99
2023-01-13T07:24:05.397Z,4.03
2023-01-13T07:26:33.684Z,4.06
2023-01-13T07:29:01.879Z,4.09
2023-01-13T07:31:30.030Z,4.12
2023-01-13T07:33:58.161Z,4.16
2023-01-13T07:36:26.634Z,4.19
2023-01-13T07:38:55.079Z,4.24
2023-01-13T07:41:42.859Z,4.29
2023-01-13T07:44:11.007Z,4.34
2023-01-13T07:46:40.567Z,4.37
2023-01-13T07:49:09.596Z,4.42
2023-01-13T07:51:39.462Z,4.49
2023-01-13T07:54:07.601Z,4.57
2023-01-13T07:56:35.806Z,4.64
2023-01-13T07:59:04.026Z,4.71
2023-01-13T08:01:32.431Z,4.76
2023-01-13T08:04:00.712Z,4.83
2023-01-13T08:06:28.857Z,4.89
2023-01-13T08:08:57.010Z,4.94
2023-01-13T08:11:25.164Z,5.01
2023-01-13T08:13:57.830Z,5.07
2023-01-13T08:16:26.346Z,5.13
2023-01-13T08:18:54.563Z,5.19
2023-01-13T08:21:22.787Z,5.25
2023-01-13T08:23:50.932Z,5.31
2023-01-13T08:26:19.434Z,5.36
2023-01-13T08:28:47.733Z,5.42
2023-01-13T08:31:17.117Z,5.47
2023-01-13T08:33:45.914Z,5.56
2023-01-13T08:36:14.127Z,5.64
2023-01-13T08:38:42.293Z,5.68
2023-01-13T08:41:36.748Z,5.72
2023-01-13T08:44:06.734Z,5.80
2023-01-13T08:46:36.492Z,5.87
2023-01-13T08:49:04.775Z,5.92
2023-01-13T08:51:32.978Z,6.01
2023-01-13T08:54:01.176Z,6.16
2023-01-13T08:56:32.754Z,6.28
2023-01-13T08:59:02.819Z,6.35
2023-01-13T09:01:31.725Z,6.39
2023-01-13T09:03:59.925Z,6.44
2023-01-13T09:06:28.014Z,6.53
2023-01-13T09:08:56.345Z,6.67
2023-01-13T09:11:50.995Z,6.90
2023-01-13T09:14:21.726Z,7.10
2023-01-13T09:16:50.209Z,7.21
2023-01-13T09:19:19.135Z,7.27
2023-01-13T09:21:47.764Z,7.32
2023-01-13T09:24:16.002Z,7.36
2023-01-13T09:26:44.689Z,7.44
2023-01-13T09:29:13.517Z,7.66
2023-01-13T09:31:44.254Z,7.99
2023-01-13T09:34:39.661Z,8.26
2023-01-13T09:37:07.825Z,8.50
2023-01-13T09:39:36.743Z,8.81
2023-01-13T09:42:51.429Z,9.06
2023-01-13T09:45:25.372Z,9.18
2023-01-13T09:48:27.973Z,9.44
2023-01-13T09:51:26.191Z,9.77
2023-01-13T09:54:00.270Z,9.99
2023-01-13T09:56:29.234Z,10.20
2023-01-13T09:58:57.884Z,10.31
2023-01-13T10:01:41.334Z,10.43
2023-01-13T10:04:15.379Z,10.56
2023-01-13T10:06:50.021Z,10.60
2023-01-13T10:09:31.406Z,10.61
2023-01-13T10:12:20.422Z,10.65
2023-01-13T10:14:55.805Z,10.78
2023-01-13T10:18:11.838Z,10.96
2023-01-13T10:20:49.015Z,10.97
2023-01-13T10:23:29.437Z,10.88
2023-01-13T10:26:26.115Z,10.81
2023-01-13T10:28:55.893Z,10.87
2023-01-13T10:31:25.573Z,10.95
2023-01-13T10:34:04.211Z,10.99
2023-01-13T10:36:32.464Z,11.01
2023-01-13T10:39:10.016Z,11.01
2023-01-13T10:41:38.139Z,11.06
2023-01-13T10:44:15.658Z,11.08
2023-01-13T10:46:55.546Z,11.08
2023-01-13T10:49:30.024Z,11.03
2023-01-13T10:51:59.269Z,10.87
2023-01-13T10:54:29.923Z,10.82
2023-01-13T10:57:20.924Z,10.79
2023-01-13T10:59:51.746Z,10.64
2023-01-13T11:02:29.734Z,10.64
2023-01-13T11:04:58.336Z,10.69
2023-01-13T11:07:40.103Z,10.72
2023-01-13T11:10:29.334Z,10.66
2023-01-13T11:13:13.940Z,10.51
2023-01-13T11:16:06.525Z,10.43
2023-01-13T11:18:37.933Z,10.34
2023-01-13T11:21:24.545Z,10.26
2023-01-13T11:24:14.997Z,10.16
2023-01-13T11:27:08.976Z,10.01
2023-01-13T11:30:09.936Z,9.90
2023-01-13T11:33:02.977Z,9.87
2023-01-13T11:35:33.052Z,9.82
2023-01-13T11:38:20.629Z,9.74
2023-01-13T11:40:51.366Z,9.66
2023-01-13T11:43:31.881Z,9.59
2023-01-13T11:46:01.574Z,9.53
2023-01-13T11:48:35.950Z,9.46
2023-01-13T11:51:16.592Z,9.43
2023-01-13T11:54:24.438Z,9.41
2023-01-13T11:57:17.525Z,9.35
2023-01-13T12:00:03.907Z,9.29
2023-01-13T12:03:31.171Z,9.27
2023-01-13T12:06:18.279Z,9.43
2023-01-13T12:09:00.731Z,9.74
2023-01-13T12:12:03.150Z,9.82
2023-01-13T12:14:58.065Z,9.84
2023-01-13T12:17:46.186Z,10.00
2023-01-13T12:20:31.068Z,10.28
2023-01-13T12:23:06.643Z,10.33
2023-01-13T12:25:41.787Z,10.23
2023-01-13T12:28:38.309Z,10.16
2023-01-13T12:31:10.314Z,10.05
2023-01-13T12:33:57.268Z,10.04
2023-01-13T12:36:34.251Z,10.03
2023-01-13T12:39:16.073Z,9.98
2023-01-13T12:42:32.040Z,9.94
2023-01-13T12:45:12.205Z,9.92
2023-01-13T12:47:44.060Z,9.85
2023-01-13T12:50:24.044Z,9.75
2023-01-13T12:52:56.181Z,9.65
2023-01-13T12:55:25.408Z,9.52
2023-01-13T12:57:57.899Z,9.39
2023-01-13T13:00:53.785Z,9.28
2023-01-13T13:03:29.449Z,9.16
2023-01-13T13:06:14.509Z,9.09
2023-01-13T13:08:45.271Z,9.04
2023-01-13T13:11:32.272Z,8.95
2023-01-13T13:14:02.787Z,8.91
2023-01-13T13:20:49.640Z,9.12
2023-01-13T13:23:37.458Z,9.20
2023-01-13T13:26:11.319Z,9.24
2023-01-13T13:28:53.219Z,9.28
2023-01-13T13:31:33.287Z,9.33
2023-01-13T13:34:15.777Z,9.34
2023-01-13T13:37:05.055Z,9.35
2023-01-13T13:39:52.796Z,9.34
2023-01-13T13:42:46.102Z,9.31
2023-01-13T13:45:39.172Z,9.26
2023-01-13T13:48:30.766Z,9.23
2023-01-13T13:51:03.019Z,9.14
2023-01-13T13:53:36.111Z,9.06
2023-01-13T13:56:15.429Z,8.99
2023-01-13T13:58:44.180Z,8.90
2023-01-13T14:01:29.998Z,8.78
2023-01-13T14:04:11.256Z,8.71
2023-01-13T14:06:59.851Z,8.60
2023-01-13T14:09:29.719Z,8.42
2023-01-13T14:12:01.698Z,8.27
2023-01-13T14:14:30.604Z,8.10
2023-01-13T14:16:58.991Z,7.94
2023-01-13T14:19:33.366Z,7.78
2023-01-13T14:22:03.892Z,7.59
2023-01-13T14:24:45.047Z,7.43
2023-01-13T14:27:18.752Z,7.26
2023-01-13T14:29:47.217Z,7.11
2023-01-13T14:32:19.508Z,6.99
2023-01-13T14:34:48.281Z,6.86
2023-01-13T14:37:40.808Z,6.73
2023-01-13T14:40:36.229Z,6.62
2023-01-13T14:43:12.365Z,6.49
2023-01-13T14:45:54.804Z,6.37
2023-01-13T14:48:36.002Z,6.25
2023-01-13T14:51:09.595Z,6.13
2023-01-13T14:53:43.792Z,6.02
2023-01-13T14:56:36.946Z,5.92
2023-01-13T14:59:42.330Z,5.79
2023-01-13T15:02:29.581Z,5.66
2023-01-13T15:05:19.117Z,5.55
2023-01-13T15:08:02.654Z,5.43
2023-01-13T15:11:01.869Z,5.32
2023-01-13T15:13:39.740Z,5.20
2023-01-13T15:16:22.516Z,5.10
2023-01-13T15:18:51.742Z,5.01
2023-01-13T15:21:20.879Z,4.91
2023-01-13T15:23:51.701Z,4.83
2023-01-13T15:26:30.300Z,4.77
2023-01-13T15:29:00.750Z,4.70
2023-01-13T15:31:29.539Z,4.63
2023-01-13T15:33:59.012Z,4.56
2023-01-13T15:36:32.227Z,4.49
2023-01-13T15:39:01.832Z,4.42
2023-01-13T15:41:49.613Z,4.35
2023-01-13T15:44:36.376Z,4.28
2023-01-13T15:47:10.215Z,4.21
2023-01-13T15:49:44.280Z,4.14
2023-01-13T15:52:24.566Z,4.06
2023-01-13T15:54:54.688Z,3.98
2023-01-13T15:57:28.934Z,3.89
2023-01-13T16:00:00.877Z,3.80
2023-01-13T16:02:31.066Z,3.72
2023-01-13T16:04:59.539Z,3.65
2023-01-13T16:07:28.438Z,3.58
2023-01-13T16:09:56.707Z,3.51
2023-01-13T16:12:25.045Z,3.45
2023-01-13T16:14:53.157Z,3.40
2023-01-13T16:17:29.703Z,3.35
2023-01-13T16:19:57.837Z,3.30
2023-01-13T16:22:26.339Z,3.27
2023-01-13T16:24:54.652Z,3.24
2023-01-13T16:27:25.436Z,3.21
2023-01-13T16:29:53.674Z,3.17
2023-01-13T16:32:22.122Z,3.13
2023-01-13T16:34:50.365Z,3.10
2023-01-13T16:37:27.240Z,3.07
2023-01-13T16:39:55.441Z,3.04
2023-01-13T16:42:23.758Z,2.99
2023-01-13T16:44:53.125Z,2.96
2023-01-13T16:47:22.983Z,2.93
2023-01-13T16:49:51.720Z,2.90
2023-01-13T16:52:19.933Z,2.85
2023-01-13T16:54:48.043Z,2.80
2023-01-13T16:57:16.292Z,2.77
2023-01-13T16:59:44.564Z,2.74
2023-01-13T17:02:19.662Z,2.71
2023-01-13T17:04:51.244Z,2.67
2023-01-13T17:07:20.075Z,2.63
2023-01-13T17:09:48.365Z,2.60
2023-01-13T17:12:16.491Z,2.56
2023-01-13T17:14:44.734Z,2.52
2023-01-13T17:17:22.318Z,2.49
2023-01-13T17:19:51.468Z,2.44
2023-01-13T17:22:21.392Z,2.41
2023-01-13T17:24:49.566Z,2.37
2023-01-13T17:27:18.898Z,2.35
2023-01-13T17:29:47.728Z,2.34
2023-01-13T17:32:20.753Z,2.34
2023-01-13T17:34:49.410Z,2.32
2023-01-13T17:37:18.056Z,2.30
2023-01-13T17:39:48.693Z,2.26
2023-01-13T17:42:17.486Z,2.22
2023-01-13T17:44:48.051Z,2.20
2023-01-13T17:47:16.360Z,2.15
2023-01-13T17:49:44.732Z,2.12
2023-01-13T17:52:13.132Z,2.09
2023-01-13T17:54:43.217Z,2.04
2023-01-13T17:57:11.724Z,1.98
2023-01-13T17:59:41.870Z,1.92
2023-01-13T18:02:12.728Z,1.89
2023-01-13T18:04:42.098Z,1.86
2023-01-13T18:07:10.226Z,1.82
2023-01-13T18:09:38.433Z,1.76
2023-01-13T18:12:06.790Z,1.70
2023-01-13T18:14:35.139Z,1.63
2023-01-13T18:17:03.398Z,1.57
2023-01-13T18:19:50.382Z,1.50
2023-01-13T18:22:37.041Z,1.44
2023-01-13T18:25:24.777Z,1.38
2023-01-13T18:27:52.989Z,1.31
2023-01-13T18:30:21.174Z,1.24
2023-01-13T18:32:49.356Z,1.18
2023-01-13T18:35:17.653Z,1.12
2023-01-13T18:37:45.907Z,1.07
2023-01-13T18:40:14.520Z,1.03
2023-01-13T18:42:52.235Z,0.99
2023-01-13T18:45:26.164Z,0.95
2023-01-13T18:47:57.427Z,0.91
2023-01-13T18:50:27.242Z,0.86
2023-01-13T18:52:56.120Z,0.82
2023-01-13T18:55:25.223Z,0.78
2023-01-13T18:57:54.008Z,0.73
2023-01-13T19:00:23.053Z,0.68
2023-01-13T19:05:36.111Z,0.59
2023-01-13T19:08:04.882Z,0.56
2023-01-13T19:10:33.224Z,0.52
2023-01-13T19:13:01.877Z,0.49
2023-01-13T19:15:30.569Z,0.46
2023-01-13T19:17:59.085Z,0.42
2023-01-13T19:20:27.515Z,0.38
2023-01-13T19:22:55.627Z,0.34
2023-01-13T19:25:23.769Z,0.29
2023-01-13T19:27:52.020Z,0.24
2023-01-13T19:30:20.256Z,0.20
2023-01-13T19:32:48.420Z,0.17
2023-01-13T19:35:18.209Z,0.13
2023-01-13T19:37:46.978Z,0.11
2023-01-13T19:40:15.877Z,0.08
2023-01-13T19:43:03.539Z,0.04
2023-01-13T19:45:35.199Z,-0.01
2023-01-13T19:48:05.730Z,-0.04
2023-01-13T19:50:41.422Z,-0.07
2023-01-13T19:53:17.695Z,-0.09
2023-01-13T19:55:48.613Z,-0.10
2023-01-13T19:58:20.727Z,-0.10
2023-01-13T20:00:49.210Z,-0.11
2023-01-13T20:03:20.874Z,-0.14
2023-01-13T20:05:49.145Z,-0.17
2023-01-13T20:08:19.435Z,-0.19
2023-01-13T20:10:49.254Z,-0.22
2023-01-13T20:13:17.682Z,-0.23
2023-01-13T20:15:45.892Z,-0.24
2023-01-13T20:18:14.945Z,-0.25
2023-01-13T20:20:43.116Z,-0.26
2023-01-13T20:23:11.345Z,-0.27
2023-01-13T20:25:42.667Z,-0.27
2023-01-13T20:28:11.035Z,-0.30
2023-01-13T20:30:40.282Z,-0.33
2023-01-13T20:33:08.737Z,-0.37
2023-01-13T20:35:37.297Z,-0.41
2023-01-13T20:38:05.549Z,-0.44
2023-01-13T20:40:34.161Z,-0.49
2023-01-13T20:43:02.459Z,-0.52
2023-01-13T20:45:30.555Z,-0.56
2023-01-13T20:47:58.827Z,-0.60
2023-01-13T20:50:26.956Z,-0.64
2023-01-13T20:52:55.053Z,-0.69
2023-01-13T20:55:23.359Z,-0.73
2023-01-13T20:57:51.644Z,-0.78
2023-01-13T21:00:20.208Z,-0.82
2023-01-13T21:02:48.470Z,-0.85
2023-01-13T21:05:16.770Z,-0.88
2023-01-13T21:07:45.175Z,-0.91
2023-01-13T21:10:13.394Z,-0.94
2023-01-13T21:13:00.261Z,-0.98
2023-01-13T21:15:28.418Z,-1.00
2023-01-13T21:18:15.257Z,-1.04
2023-01-13T21:20:43.734Z,-1.07
2023-01-13T21:23:12.111Z,-1.09
2023-01-13T21:25:40.509Z,-1.12
2023-01-13T21:28:11.687Z,-1.15
2023-01-13T21:30:40.182Z,-1.17
2023-01-13T21:33:13.563Z,-1.19
2023-01-13T21:35:41.944Z,-1.23
2023-01-13T21:38:11.433Z,-1.26
2023-01-13T21:40:39.699Z,-1.29
2023-01-13T21:43:31.090Z,-1.31
2023-01-13T21:46:18.095Z,-1.34
2023-01-13T21:48:46.203Z,-1.38
2023-01-13T21:51:14.660Z,-1.39
2023-01-13T21:53:42.977Z,-1.40
2023-01-13T21:56:11.311Z,-1.41
2023-01-13T21:58:40.203Z,-1.40
2023-01-13T22:01:10.089Z,-1.40
2023-01-13T22:03:59.825Z,-1.39
2023-01-13T22:06:28.126Z,-1.39
2023-01-13T22:09:01.207Z,-1.38
2023-01-13T22:11:29.588Z,-1.38
2023-01-13T22:14:09.313Z,-1.39
2023-01-13T22:16:41.807Z,-1.40
2023-01-13T22:19:10.895Z,-1.42
2023-01-13T22:21:40.193Z,-1.43
2023-01-13T22:24:08.802Z,-1.44
2023-01-13T22:26:37.108Z,-1.45
2023-01-13T22:29:06.297Z,-1.46
2023-01-13T22:31:35.420Z,-1.47
2023-01-13T22:34:03.956Z,-1.49
2023-01-13T22:36:32.258Z,-1.50
2023-01-13T22:39:00.748Z,-1.50
2023-01-13T22:41:29.217Z,-1.49
2023-01-13T22:43:58.426Z,-1.47
2023-01-13T22:46:26.807Z,-1.46
2023-01-13T22:48:56.248Z,-1.44
2023-01-13T22:51:25.300Z,-1.42
2023-01-13T22:53:55.389Z,-1.40
2023-01-13T22:56:25.370Z,-1.39
2023-01-13T22:59:01.899Z,-1.37
2023-01-13T23:01:32.884Z,-1.36
2023-01-13T23:04:02.535Z,-1.36
2023-01-13T23:06:32.491Z,-1.36
2023-01-13T23:09:01.079Z,-1.38
2023-01-13T23:11:35.375Z,-1.37
2023-01-13T23:14:06.960Z,-1.38
2023-01-13T23:16:38.562Z,-1.39
2023-01-13T23:19:08.290Z,-1.40
2023-01-13T23:21:38.204Z,-1.40
2023-01-13T23:24:07.667Z,-1.40
2023-01-13T23:26:36.638Z,-1.40
2023-01-13T23:29:08.324Z,-1.40
2023-01-13T23:31:36.523Z,-1.41
2023-01-13T23:34:04.917Z,-1.42
2023-01-13T23:36:37.036Z,-1.43
2023-01-13T23:39:05.189Z,-1.43
2023-01-13T23:41:33.618Z,-1.43
2023-01-13T23:44:01.909Z,-1.44
2023-01-13T23:46:33.139Z,-1.43
2023-01-13T23:49:03.459Z,-1.42
2023-01-13T23:51:32.368Z,-1.42
2023-01-13T23:54:00.743Z,-1.42
2023-01-13T23:56:30.846Z,-1.42
2023-01-13T23:58:59.496Z,-1.41
